Time;durP1;ratioP1;P1;durP2;ratioP2;P2;SDS_P1;SDS_P2;PMS_P1;PMS_P2;Temp;Humidity;BMP_temperature;BMP_pressure;BME280_temperature;BME280_humidity;BME280_pressure;Samples;Min_cycle;Max_cycle;Signal;HPM_P1;HPM_P2
2021/06/26 00:00:03;;;;;;;5.90;4.38;;;;;;;;;;5050276;28;20057;-64
2021/06/26 00:02:31;;;;;;;9.48;4.20;;;;;;;;;;5049092;28;20098;-65
2021/06/26 00:05:00;;;;;;;6.50;4.25;;;;;;;;;;5050590;28;20055;-64
2021/06/26 00:07:28;;;;;;;6.03;4.30;;;;;;;;;;5049940;28;20085;-64
2021/06/26 00:09:57;;;;;;;9.13;4.40;;;;;;;;;;5050069;28;20044;-65
2021/06/26 00:12:26;;;;;;;6.70;4.68;;;;;;;;;;5050676;28;20041;-65
2021/06/26 00:14:54;;;;;;;9.10;4.15;;;;;;;;;;5051117;28;20037;-65
2021/06/26 00:17:23;;;;;;;6.30;4.20;;;;;;;;;;5049769;28;20148;-65
2021/06/26 00:19:51;;;;;;;7.40;4.10;;;;;;;;;;5050651;28;20055;-64
2021/06/26 00:22:19;;;;;;;9.23;4.93;;;;;;;;;;5050558;28;20068;-65
2021/06/26 00:24:47;;;;;;;6.85;4.43;;;;;;;;;;5051037;28;20049;-65
2021/06/26 00:27:17;;;;;;;7.15;4.22;;;;;;;;;;5056582;28;20089;-65
2021/06/26 00:29:46;;;;;;;8.02;4.63;;;;;;;;;;5051359;28;20481;-64
2021/06/26 00:32:14;;;;;;;6.53;4.32;;;;;;;;;;5050389;28;20055;-65
2021/06/26 00:34:43;;;;;;;9.38;4.72;;;;;;;;;;5050550;28;20049;-65
2021/06/26 00:37:15;;;;;;;7.55;4.70;;;;;;;;;;5044572;28;20055;-64
2021/06/26 00:39:43;;;;;;;6.30;4.30;;;;;;;;;;5049742;28;20072;-65
2021/06/26 00:42:12;;;;;;;6.68;4.28;;;;;;;;;;5050917;28;20127;-65
2021/06/26 00:44:41;;;;;;;5.78;3.95;;;;;;;;;;5050290;28;20076;-65
2021/06/26 00:47:12;;;;;;;10.07;4.75;;;;;;;;;;5050095;28;20051;-65
2021/06/26 00:49:41;;;;;;;7.47;4.55;;;;;;;;;;5049323;28;20476;-64
2021/06/26 00:52:10;;;;;;;9.15;4.70;;;;;;;;;;5048876;28;20072;-64
2021/06/26 00:54:38;;;;;;;8.77;4.68;;;;;;;;;;5048791;28;20103;-65
2021/06/26 00:57:09;;;;;;;8.13;5.18;;;;;;;;;;5049125;28;20059;-65
2021/06/26 00:59:37;;;;;;;6.75;4.40;;;;;;;;;;5053332;28;20051;-64
2021/06/26 01:02:08;;;;;;;8.02;4.43;;;;;;;;;;5057796;28;20045;-65
2021/06/26 01:04:36;;;;;;;7.47;4.60;;;;;;;;;;5076839;28;20057;-65
2021/06/26 01:07:04;;;;;;;9.30;4.60;;;;;;;;;;5061186;28;20083;-65
2021/06/26 01:09:33;;;;;;;6.78;4.95;;;;;;;;;;5056292;28;20412;-64
2021/06/26 01:12:01;;;;;;;5.50;4.53;;;;;;;;;;5057788;28;20049;-65
2021/06/26 01:14:30;;;;;;;12.05;4.65;;;;;;;;;;5057031;28;20127;-64
2021/06/26 01:17:05;;;;;;;8.02;4.90;;;;;;;;;;5056342;28;20479;-64
2021/06/26 01:19:33;;;;;;;;;;;;;;;;;;5057717;28;20140;-64
2021/06/26 01:22:05;;;;;;;8.85;5.38;;;;;;;;;;5056965;28;20019;-64
2021/06/26 01:24:35;;;;;;;9.93;4.97;;;;;;;;;;5056200;28;20049;-64
2021/06/26 01:27:03;;;;;;;8.88;5.05;;;;;;;;;;5055058;28;20537;-65
2021/06/26 01:29:32;;;;;;;10.45;4.40;;;;;;;;;;5055616;28;20124;-64
2021/06/26 01:32:01;;;;;;;6.07;4.38;;;;;;;;;;5057228;28;20140;-64
2021/06/26 01:34:29;;;;;;;6.40;4.63;;;;;;;;;;5056274;28;20139;-65
2021/06/26 01:36:57;;;;;;;7.05;4.93;;;;;;;;;;5056355;28;20123;-64
2021/06/26 01:39:26;;;;;;;11.07;4.85;;;;;;;;;;5056512;28;20145;-64
2021/06/26 01:41:55;;;;;;;6.53;4.75;;;;;;;;;;5055862;28;20154;-64
2021/06/26 01:44:23;;;;;;;8.02;5.22;;;;;;;;;;5053297;28;20061;-64
2021/06/26 01:46:52;;;;;;;8.40;4.82;;;;;;;;;;5046992;28;20207;-65
2021/06/26 01:49:20;;;;;;;8.35;5.00;;;;;;;;;;5056136;28;20511;-65
2021/06/26 01:51:48;;;;;;;7.35;4.28;;;;;;;;;;5052734;28;20049;-65
2021/06/26 01:54:17;;;;;;;7.55;5.13;;;;;;;;;;5054718;28;20056;-65
2021/06/26 01:56:46;;;;;;;6.72;4.55;;;;;;;;;;5054978;28;20041;-65
2021/06/26 01:59:15;;;;;;;5.80;4.45;;;;;;;;;;5056017;28;20473;-64
2021/06/26 02:01:44;;;;;;;7.47;5.13;;;;;;;;;;5055838;28;20079;-65
2021/06/26 02:04:12;;;;;;;10.77;6.18;;;;;;;;;;5055961;28;20060;-65
2021/06/26 02:06:41;;;;;;;9.45;5.55;;;;;;;;;;5056524;28;20051;-65
2021/06/26 02:09:09;;;;;;;9.80;5.28;;;;;;;;;;5050925;28;20627;-65
2021/06/26 02:11:37;;;;;;;7.82;5.05;;;;;;;;;;5057497;28;20140;-65
2021/06/26 02:14:06;;;;;;;9.10;5.25;;;;;;;;;;5053484;28;20045;-65
2021/06/26 02:16:35;;;;;;;6.65;4.68;;;;;;;;;;5055452;28;20053;-64
2021/06/26 02:19:04;;;;;;;11.50;5.88;;;;;;;;;;5054499;28;20110;-65
2021/06/26 02:21:32;;;;;;;7.78;5.97;;;;;;;;;;5056440;28;20045;-65
2021/06/26 02:24:01;;;;;;;9.60;5.60;;;;;;;;;;5052303;28;20115;-64
2021/06/26 02:26:29;;;;;;;10.13;5.35;;;;;;;;;;5051983;28;20484;-65
2021/06/26 02:28:58;;;;;;;7.80;5.68;;;;;;;;;;5053177;28;20133;-65
2021/06/26 02:31:26;;;;;;;8.75;5.30;;;;;;;;;;5053963;28;20136;-65
2021/06/26 02:33:56;;;;;;;10.68;5.28;;;;;;;;;;5052345;28;20041;-64
2021/06/26 02:36:24;;;;;;;8.88;5.75;;;;;;;;;;5052284;28;20080;-65
2021/06/26 02:38:53;;;;;;;9.07;5.50;;;;;;;;;;5051473;28;20473;-64
2021/06/26 02:41:22;;;;;;;11.70;5.30;;;;;;;;;;5053284;28;20110;-64
2021/06/26 02:43:51;;;;;;;8.27;5.43;;;;;;;;;;5052494;28;20085;-64
2021/06/26 02:46:19;;;;;;;7.45;4.97;;;;;;;;;;5053306;28;20076;-65
2021/06/26 02:48:48;;;;;;;8.85;5.38;;;;;;;;;;5052507;28;20317;-64
2021/06/26 02:51:18;;;;;;;7.45;5.18;;;;;;;;;;5051780;28;20069;-64
2021/06/26 02:53:46;;;;;;;10.60;5.43;;;;;;;;;;5051729;28;20123;-65
2021/06/26 02:56:14;;;;;;;7.50;4.75;;;;;;;;;;5052283;28;20064;-65
2021/06/26 02:58:42;;;;;;;10.95;6.00;;;;;;;;;;5053714;28;20224;-64
2021/06/26 03:01:11;;;;;;;9.48;5.28;;;;;;;;;;5052169;28;20590;-64
2021/06/26 03:03:39;;;;;;;8.65;5.68;;;;;;;;;;5053340;28;20053;-64
2021/06/26 03:06:08;;;;;;;7.45;5.40;;;;;;;;;;5051324;28;20571;-65
2021/06/26 03:08:38;;;;;;;11.13;5.40;;;;;;;;;;5054572;28;20132;-65
2021/06/26 03:11:06;;;;;;;7.93;5.70;;;;;;;;;;5049641;28;20040;-64
2021/06/26 03:13:34;;;;;;;8.00;5.65;;;;;;;;;;5052166;28;20564;-64
2021/06/26 03:16:03;;;;;;;8.10;5.32;;;;;;;;;;5051391;28;20044;-65
2021/06/26 03:18:31;;;;;;;6.57;5.10;;;;;;;;;;5052480;28;20096;-64
2021/06/26 03:20:59;;;;;;;6.75;4.57;;;;;;;;;;5051818;28;20057;-65
2021/06/26 03:23:28;;;;;;;12.10;4.93;;;;;;;;;;5051232;28;20535;-65
2021/06/26 03:25:57;;;;;;;10.25;5.68;;;;;;;;;;5050656;28;20049;-65
2021/06/26 03:28:26;;;;;;;6.70;5.10;;;;;;;;;;5051618;28;20489;-65
2021/06/26 03:30:54;;;;;;;7.47;5.43;;;;;;;;;;5050979;28;20129;-64
2021/06/26 03:33:22;;;;;;;8.00;5.30;;;;;;;;;;5051470;28;20059;-65
2021/06/26 03:35:50;;;;;;;8.07;5.60;;;;;;;;;;5050979;28;20128;-65
2021/06/26 03:38:19;;;;;;;7.60;5.53;;;;;;;;;;5051523;28;20071;-65
2021/06/26 03:40:49;;;;;;;10.07;5.40;;;;;;;;;;5051159;28;20045;-65
2021/06/26 03:43:19;;;;;;;9.40;5.45;;;;;;;;;;5049608;28;20568;-65
2021/06/26 03:45:48;;;;;;;10.48;5.47;;;;;;;;;;5037808;28;20076;-64
2021/06/26 03:48:16;;;;;;;7.78;4.95;;;;;;;;;;5052302;28;20140;-64
2021/06/26 03:50:44;;;;;;;9.15;5.25;;;;;;;;;;5052288;28;20044;-64
2021/06/26 03:53:12;;;;;;;8.57;5.22;;;;;;;;;;5051293;28;20575;-64
2021/06/26 03:55:51;;;;;;;7.93;5.18;;;;;;;;;;5051426;28;20125;-64
2021/06/26 03:58:21;;;;;;;7.93;4.93;;;;;;;;;;5032313;28;20124;-64
2021/06/26 04:00:50;;;;;;;8.30;5.15;;;;;;;;;;5049756;28;20083;-64
2021/06/26 04:03:18;;;;;;;9.05;4.97;;;;;;;;;;5050240;28;20086;-65
2021/06/26 04:05:47;;;;;;;6.72;4.57;;;;;;;;;;5050792;28;20164;-64
2021/06/26 04:08:15;;;;;;;8.38;5.07;;;;;;;;;;5049371;28;20123;-64
2021/06/26 04:10:44;;;;;;;7.22;4.75;;;;;;;;;;5050897;28;20049;-64
2021/06/26 04:13:12;;;;;;;9.20;5.53;;;;;;;;;;5050989;28;20462;-64
2021/06/26 04:15:42;;;;;;;6.28;4.63;;;;;;;;;;5050588;28;20077;-65
2021/06/26 04:18:10;;;;;;;9.57;5.25;;;;;;;;;;5049713;28;20072;-65
2021/06/26 04:20:39;;;;;;;10.98;5.53;;;;;;;;;;5049941;28;20123;-65
2021/06/26 04:23:07;;;;;;;7.85;5.13;;;;;;;;;;5050132;28;20099;-64
2021/06/26 04:25:35;;;;;;;7.72;5.03;;;;;;;;;;5050463;28;20120;-65
2021/06/26 04:28:07;;;;;;;9.13;5.20;;;;;;;;;;5046871;28;20080;-64
2021/06/26 04:30:36;;;;;;;6.82;4.88;;;;;;;;;;5049688;28;20053;-64
2021/06/26 04:33:06;;;;;;;8.10;4.80;;;;;;;;;;5050934;28;20048;-64
2021/06/26 04:35:34;;;;;;;8.45;4.60;;;;;;;;;;5049193;28;20095;-65
2021/06/26 04:38:03;;;;;;;5.45;4.18;;;;;;;;;;5057393;28;20492;-64
2021/06/26 04:40:31;;;;;;;11.60;4.60;;;;;;;;;;5049597;28;20059;-65
2021/06/26 04:43:00;;;;;;;7.35;4.53;;;;;;;;;;5050702;28;20045;-64
2021/06/26 04:45:28;;;;;;;8.13;4.85;;;;;;;;;;5050557;28;20047;-65
2021/06/26 04:48:00;;;;;;;6.15;4.28;;;;;;;;;;5050359;28;20049;-64
2021/06/26 04:50:31;;;;;;;6.28;4.47;;;;;;;;;;5049792;28;20049;-65
2021/06/26 04:53:00;;;;;;;7.90;4.43;;;;;;;;;;5048545;28;20049;-65
2021/06/26 04:55:28;;;;;;;6.63;4.93;;;;;;;;;;5046206;28;20068;-65
2021/06/26 04:57:56;;;;;;;7.80;4.55;;;;;;;;;;5045493;28;20679;-65
2021/06/26 05:00:25;;;;;;;6.30;4.45;;;;;;;;;;5045960;28;20131;-65
2021/06/26 05:02:53;;;;;;;5.80;4.30;;;;;;;;;;5045057;28;20041;-65
2021/06/26 05:05:21;;;;;;;7.50;4.88;;;;;;;;;;5046092;28;20092;-65
2021/06/26 05:07:51;;;;;;;5.95;4.53;;;;;;;;;;5044803;28;20430;-65
2021/06/26 05:10:20;;;;;;;10.73;5.72;;;;;;;;;;5049583;28;20076;-65
2021/06/26 05:12:48;;;;;;;7.05;4.30;;;;;;;;;;5042036;28;20535;-65
2021/06/26 05:15:17;;;;;;;7.78;5.03;;;;;;;;;;5044488;28;20037;-65
2021/06/26 05:17:45;;;;;;;11.25;6.10;;;;;;;;;;5045066;28;20076;-65
2021/06/26 05:20:17;;;;;;;13.38;8.77;;;;;;;;;;5046941;28;20497;-65
2021/06/26 05:22:45;;;;;;;11.25;6.93;;;;;;;;;;5044456;28;20057;-65
2021/06/26 05:25:14;;;;;;;13.13;7.30;;;;;;;;;;5045912;28;20128;-65
2021/06/26 05:27:43;;;;;;;18.58;9.23;;;;;;;;;;5046447;28;20079;-65
2021/06/26 05:30:12;;;;;;;13.52;8.10;;;;;;;;;;5046777;28;20099;-65
2021/06/26 05:32:41;;;;;;;16.75;10.20;;;;;;;;;;5046831;28;20159;-65
2021/06/26 05:35:10;;;;;;;18.10;10.32;;;;;;;;;;5047100;28;20136;-65
2021/06/26 05:37:38;;;;;;;14.68;9.55;;;;;;;;;;5044580;28;20057;-65
2021/06/26 05:40:07;;;;;;;15.82;9.63;;;;;;;;;;5047116;28;20045;-65
2021/06/26 05:42:37;;;;;;;14.18;9.27;;;;;;;;;;5046406;28;20067;-65
2021/06/26 05:45:06;;;;;;;16.30;10.00;;;;;;;;;;5038344;28;20108;-65
2021/06/26 05:47:34;;;;;;;13.23;9.00;;;;;;;;;;5048075;28;20053;-65
2021/06/26 05:50:03;;;;;;;17.30;9.60;;;;;;;;;;5044166;28;20417;-65
2021/06/26 05:52:31;;;;;;;15.35;8.80;;;;;;;;;;5051169;28;20055;-65
2021/06/26 05:54:59;;;;;;;17.85;10.88;;;;;;;;;;5049552;28;20074;-65
2021/06/26 05:57:28;;;;;;;15.10;9.55;;;;;;;;;;5050441;28;20075;-65
2021/06/26 05:59:57;;;;;;;14.65;9.48;;;;;;;;;;5049933;28;20045;-65
2021/06/26 06:02:25;;;;;;;15.25;9.55;;;;;;;;;;5050862;28;21134;-65
2021/06/26 06:04:54;;;;;;;14.45;8.43;;;;;;;;;;5050527;28;20516;-65
2021/06/26 06:07:22;;;;;;;12.32;8.10;;;;;;;;;;5049951;28;20113;-65
2021/06/26 06:09:50;;;;;;;14.45;8.13;;;;;;;;;;5051114;28;20102;-65
2021/06/26 06:12:19;;;;;;;17.50;9.75;;;;;;;;;;5051284;28;20056;-64
2021/06/26 06:14:47;;;;;;;16.83;10.07;;;;;;;;;;5050343;28;20037;-65
2021/06/26 06:17:16;;;;;;;16.05;9.32;;;;;;;;;;5050259;28;20132;-65
2021/06/26 06:19:45;;;;;;;16.15;9.60;;;;;;;;;;5051529;28;20052;-65
2021/06/26 06:22:13;;;;;;;16.85;9.88;;;;;;;;;;5051026;28;20059;-65
2021/06/26 06:24:41;;;;;;;17.17;10.15;;;;;;;;;;5050535;28;20048;-65
2021/06/26 06:27:10;;;;;;;19.52;11.07;;;;;;;;;;5061146;28;20536;-65
2021/06/26 06:29:39;;;;;;;16.00;11.13;;;;;;;;;;5056532;28;20426;-65
2021/06/26 06:32:07;;;;;;;17.92;10.40;;;;;;;;;;5050585;28;20059;-65
2021/06/26 06:34:38;;;;;;;16.73;10.02;;;;;;;;;;5049120;28;20494;-65
2021/06/26 06:37:06;;;;;;;15.95;10.25;;;;;;;;;;5050926;28;20057;-65
2021/06/26 06:39:35;;;;;;;15.57;10.55;;;;;;;;;;5051139;28;20383;-65
2021/06/26 06:42:03;;;;;;;16.67;10.73;;;;;;;;;;5051347;28;20314;-65
2021/06/26 06:44:32;;;;;;;16.25;10.05;;;;;;;;;;5049619;28;20057;-65
2021/06/26 06:47:00;;;;;;;17.77;10.75;;;;;;;;;;5048495;28;20124;-65
2021/06/26 06:49:29;;;;;;;15.88;11.07;;;;;;;;;;5050210;28;20044;-65
2021/06/26 06:51:58;;;;;;;16.73;10.13;;;;;;;;;;5050285;28;20096;-65
2021/06/26 06:54:27;;;;;;;15.85;11.07;;;;;;;;;;5049437;28;20131;-66
2021/06/26 06:56:55;;;;;;;16.10;9.90;;;;;;;;;;5051023;28;20041;-66
2021/06/26 06:59:23;;;;;;;15.43;10.23;;;;;;;;;;5050874;28;20328;-66
2021/06/26 07:01:52;;;;;;;15.45;10.57;;;;;;;;;;5051703;28;20060;-65
2021/06/26 07:04:20;;;;;;;19.70;10.55;;;;;;;;;;5051912;28;20147;-66
2021/06/26 07:06:48;;;;;;;16.17;10.32;;;;;;;;;;5049025;28;20498;-66
2021/06/26 07:09:18;;;;;;;17.23;10.85;;;;;;;;;;5049874;28;20083;-66
2021/06/26 07:11:46;;;;;;;15.85;9.23;;;;;;;;;;5050939;28;20057;-66
2021/06/26 07:14:14;;;;;;;15.88;9.07;;;;;;;;;;5049992;28;20045;-66
2021/06/26 07:16:42;;;;;;;14.73;8.98;;;;;;;;;;5049757;28;20049;-65
2021/06/26 07:19:11;;;;;;;13.95;8.93;;;;;;;;;;5049459;28;20543;-65
2021/06/26 07:21:40;;;;;;;13.68;8.88;;;;;;;;;;5041597;28;20095;-65
2021/06/26 07:24:09;;;;;;;15.05;10.27;;;;;;;;;;5047668;28;20136;-66
2021/06/26 07:26:39;;;;;;;13.82;9.52;;;;;;;;;;5047221;28;20049;-66
2021/06/26 07:29:07;;;;;;;12.25;8.00;;;;;;;;;;5049672;28;20655;-66
2021/06/26 07:31:36;;;;;;;12.60;8.50;;;;;;;;;;5048977;28;20048;-66
2021/06/26 07:34:04;;;;;;;9.77;7.78;;;;;;;;;;5051030;28;20397;-67
2021/06/26 07:36:32;;;;;;;13.07;8.50;;;;;;;;;;5046966;28;20070;-67
2021/06/26 07:39:01;;;;;;;10.38;7.93;;;;;;;;;;5041311;28;20115;-66
2021/06/26 07:41:29;;;;;;;11.93;7.68;;;;;;;;;;5051765;28;20103;-67
2021/06/26 07:43:59;;;;;;;10.20;7.72;;;;;;;;;;5048874;28;20522;-67
2021/06/26 07:46:27;;;;;;;8.65;6.78;;;;;;;;;;5048904;28;20045;-67
2021/06/26 07:48:56;;;;;;;11.43;7.82;;;;;;;;;;5048318;28;20128;-67
2021/06/26 07:51:25;;;;;;;11.27;7.03;;;;;;;;;;5048338;28;20052;-67
2021/06/26 07:53:53;;;;;;;11.18;7.45;;;;;;;;;;5049649;28;20136;-67
2021/06/26 07:56:22;;;;;;;7.85;6.45;;;;;;;;;;5047126;28;20132;-68
2021/06/26 07:58:51;;;;;;;13.45;7.78;;;;;;;;;;5049103;28;20122;-67
2021/06/26 08:01:21;;;;;;;11.02;7.38;;;;;;;;;;5046774;28;20104;-66
2021/06/26 08:03:49;;;;;;;9.23;6.10;;;;;;;;;;5046936;28;20052;-67
2021/06/26 08:06:18;;;;;;;8.18;5.72;;;;;;;;;;5048569;28;20135;-67
2021/06/26 08:08:46;;;;;;;6.57;5.10;;;;;;;;;;5049404;28;20098;-67
2021/06/26 08:11:14;;;;;;;9.85;6.32;;;;;;;;;;5044508;28;20132;-67
2021/06/26 08:13:42;;;;;;;7.55;5.90;;;;;;;;;;5055444;28;20396;-67
2021/06/26 08:16:11;;;;;;;8.40;6.15;;;;;;;;;;5048463;28;20472;-67
2021/06/26 08:18:40;;;;;;;7.45;5.43;;;;;;;;;;5049136;28;20053;-66
2021/06/26 08:21:09;;;;;;;7.82;5.93;;;;;;;;;;5049965;28;20076;-66
2021/06/26 08:23:37;;;;;;;8.60;6.07;;;;;;;;;;5050780;28;20138;-66
2021/06/26 08:26:06;;;;;;;9.50;6.22;;;;;;;;;;5048990;28;20056;-67
2021/06/26 08:28:35;;;;;;;10.13;5.97;;;;;;;;;;5050283;28;20069;-65
2021/06/26 08:31:03;;;;;;;8.57;6.20;;;;;;;;;;5051199;28;20052;-66
2021/06/26 08:33:32;;;;;;;7.80;5.57;;;;;;;;;;5051154;28;20128;-66
2021/06/26 08:36:01;;;;;;;10.93;7.57;;;;;;;;;;5050282;28;20484;-66
2021/06/26 08:38:30;;;;;;;7.88;5.70;;;;;;;;;;5050540;28;20479;-66
2021/06/26 08:40:58;;;;;;;9.88;6.70;;;;;;;;;;5050370;28;20120;-66
2021/06/26 08:43:28;;;;;;;8.98;6.13;;;;;;;;;;5049516;28;20041;-66
2021/06/26 08:45:57;;;;;;;7.70;6.03;;;;;;;;;;5050085;28;20102;-66
2021/06/26 08:48:27;;;;;;;7.80;5.80;;;;;;;;;;5048760;28;20045;-64
2021/06/26 08:50:55;;;;;;;9.02;6.47;;;;;;;;;;5050919;28;20141;-66
2021/06/26 08:53:25;;;;;;;9.05;5.40;;;;;;;;;;5049954;28;20289;-66
2021/06/26 08:55:54;;;;;;;8.13;5.30;;;;;;;;;;5050017;28;20098;-66
2021/06/26 08:58:22;;;;;;;8.55;5.43;;;;;;;;;;5047496;28;20047;-66
2021/06/26 09:00:52;;;;;;;6.25;4.75;;;;;;;;;;5050084;28;20072;-66
2021/06/26 09:03:23;;;;;;;6.40;4.47;;;;;;;;;;5050340;28;20049;-66
2021/06/26 09:05:52;;;;;;;6.18;4.80;;;;;;;;;;5052531;28;20107;-66
2021/06/26 09:08:21;;;;;;;6.28;5.03;;;;;;;;;;5050442;28;20059;-66
2021/06/26 09:10:52;;;;;;;4.72;4.05;;;;;;;;;;5048758;28;20045;-66
2021/06/26 09:13:23;;;;;;;6.35;4.53;;;;;;;;;;5049927;28;20127;-66
2021/06/26 09:15:52;;;;;;;6.07;4.45;;;;;;;;;;5051259;28;20049;-65
2021/06/26 09:18:21;;;;;;;7.90;4.60;;;;;;;;;;5054449;28;20450;-66
2021/06/26 09:20:51;;;;;;;5.85;4.47;;;;;;;;;;5054602;28;20139;-65
2021/06/26 09:23:21;;;;;;;6.85;4.10;;;;;;;;;;5053557;28;20131;-67
2021/06/26 09:26:03;;;;;;;5.47;4.00;;;;;;;;;;5053300;28;20477;-66
2021/06/26 09:28:32;;;;;;;6.57;3.78;;;;;;;;;;5054245;28;20044;-65
2021/06/26 09:31:04;;;;;;;4.32;3.80;;;;;;;;;;5054848;28;20067;-64
2021/06/26 09:33:33;;;;;;;5.18;3.60;;;;;;;;;;5053844;28;20053;-65
2021/06/26 09:36:02;;;;;;;4.40;3.85;;;;;;;;;;5053045;28;20053;-65
2021/06/26 09:38:32;;;;;;;5.78;4.60;;;;;;;;;;5053376;28;20519;-64
2021/06/26 09:41:13;;;;;;;7.03;4.22;;;;;;;;;;5054186;28;20221;-65
2021/06/26 09:43:42;;;;;;;6.97;4.72;;;;;;;;;;5054714;28;20096;-64
2021/06/26 09:46:11;;;;;;;6.00;4.38;;;;;;;;;;5052972;28;20057;-65
2021/06/26 09:48:49;;;;;;;5.45;4.10;;;;;;;;;;5049625;28;20156;-65
2021/06/26 09:51:19;;;;;;;5.85;4.50;;;;;;;;;;5051656;28;20052;-64
2021/06/26 09:53:54;;;;;;;4.90;3.95;;;;;;;;;;5054234;28;20059;-64
2021/06/26 09:56:25;;;;;;;5.53;3.65;;;;;;;;;;5051290;28;20052;-67
2021/06/26 09:58:54;;;;;;;5.05;3.78;;;;;;;;;;5052623;28;20416;-65
2021/06/26 10:01:23;;;;;;;5.25;4.05;;;;;;;;;;5053066;28;20037;-65
2021/06/26 10:03:51;;;;;;;5.18;3.83;;;;;;;;;;5053351;28;20053;-67
2021/06/26 10:06:20;;;;;;;4.03;3.63;;;;;;;;;;5050207;28;20140;-65
2021/06/26 10:08:49;;;;;;;3.88;3.30;;;;;;;;;;5049116;28;20148;-65
2021/06/26 10:11:17;;;;;;;5.30;3.13;;;;;;;;;;5049756;28;20136;-66
2021/06/26 10:13:49;;;;;;;4.25;3.35;;;;;;;;;;5050540;28;20049;-65
2021/06/26 10:16:17;;;;;;;5.72;3.80;;;;;;;;;;5049070;28;20067;-67
2021/06/26 10:18:45;;;;;;;4.20;3.15;;;;;;;;;;5049527;28;20090;-65
2021/06/26 10:21:14;;;;;;;5.20;3.70;;;;;;;;;;5049106;28;20047;-66
2021/06/26 10:23:43;;;;;;;8.48;3.70;;;;;;;;;;5040450;28;20049;-67
2021/06/26 10:26:13;;;;;;;7.13;3.55;;;;;;;;;;5049405;28;20128;-66
2021/06/26 10:28:49;;;;;;;6.22;3.63;;;;;;;;;;5049551;28;20045;-68
2021/06/26 10:31:28;;;;;;;3.95;3.30;;;;;;;;;;5051289;28;20079;-68
2021/06/26 10:34:07;;;;;;;4.50;3.70;;;;;;;;;;5049614;28;20350;-67
2021/06/26 10:36:37;;;;;;;5.45;4.07;;;;;;;;;;5050197;28;20136;-68
2021/06/26 10:39:17;;;;;;;3.75;3.22;;;;;;;;;;5051651;28;20076;-67
2021/06/26 10:41:56;;;;;;;4.05;3.40;;;;;;;;;;5050473;28;20060;-67
2021/06/26 10:44:26;;;;;;;4.95;3.22;;;;;;;;;;5050466;28;20053;-67
2021/06/26 10:46:54;;;;;;;4.97;3.70;;;;;;;;;;5050683;28;20468;-66
2021/06/26 10:49:30;;;;;;;4.85;3.33;;;;;;;;;;5051134;28;20378;-67
2021/06/26 10:52:08;;;;;;;4.75;3.20;;;;;;;;;;5049641;28;20062;-66
2021/06/26 10:54:37;;;;;;;3.55;2.88;;;;;;;;;;5051403;28;20045;-64
2021/06/26 10:57:06;;;;;;;3.58;3.10;;;;;;;;;;5051287;28;20044;-66
2021/06/26 10:59:35;;;;;;;3.45;3.00;;;;;;;;;;5038821;28;20681;-66
2021/06/26 11:02:04;;;;;;;3.25;2.55;;;;;;;;;;5044627;28;20132;-66
2021/06/26 11:04:34;;;;;;;3.53;2.90;;;;;;;;;;5046375;28;20061;-66
2021/06/26 11:07:04;;;;;;;5.13;3.20;;;;;;;;;;5054774;28;20056;-65
2021/06/26 11:09:36;;;;;;;4.32;3.08;;;;;;;;;;5052422;28;20178;-65
2021/06/26 11:12:09;;;;;;;4.80;3.78;;;;;;;;;;5052342;28;20145;-66
2021/06/26 11:14:48;;;;;;;7.10;3.33;;;;;;;;;;5053394;28;20045;-66
2021/06/26 11:17:16;;;;;;;3.55;2.67;;;;;;;;;;5052537;28;20106;-66
2021/06/26 11:19:45;;;;;;;4.43;3.55;;;;;;;;;;5053210;28;20075;-66
2021/06/26 11:22:14;;;;;;;4.07;3.35;;;;;;;;;;5053293;28;20057;-66
2021/06/26 11:25:00;;;;;;;3.95;3.33;;;;;;;;;;5051545;28;20052;-64
2021/06/26 11:27:28;;;;;;;6.03;3.08;;;;;;;;;;5049820;28;20112;-64
2021/06/26 11:30:03;;;;;;;11.43;2.90;;;;;;;;;;5050796;28;20128;-65
2021/06/26 11:32:31;;;;;;;4.32;3.72;;;;;;;;;;5052510;28;20074;-64
2021/06/26 11:35:00;;;;;;;14.60;3.92;;;;;;;;;;5051812;28;20124;-64
2021/06/26 11:37:35;;;;;;;10.60;3.47;;;;;;;;;;5049787;28;20497;-65
2021/06/26 11:40:05;;;;;;;3.10;2.80;;;;;;;;;;5049632;28;20055;-65
2021/06/26 11:42:34;;;;;;;6.72;2.95;;;;;;;;;;5051120;28;20049;-65
2021/06/26 11:45:11;;;;;;;29.00;4.90;;;;;;;;;;5050259;28;20057;-64
2021/06/26 11:47:39;;;;;;;4.90;3.35;;;;;;;;;;5052084;28;20044;-63
2021/06/26 11:50:13;;;;;;;5.28;3.35;;;;;;;;;;5051611;28;20396;-64
2021/06/26 11:52:41;;;;;;;3.67;3.00;;;;;;;;;;5051112;28;20047;-64
2021/06/26 11:55:09;;;;;;;4.30;3.50;;;;;;;;;;5052226;28;20461;-63
2021/06/26 11:57:38;;;;;;;3.90;3.20;;;;;;;;;;5049390;28;20056;-65
2021/06/26 12:00:08;;;;;;;3.33;2.78;;;;;;;;;;5050956;28;20136;-64
2021/06/26 12:02:39;;;;;;;3.97;2.83;;;;;;;;;;5050564;28;20045;-64
2021/06/26 12:05:08;;;;;;;3.47;2.97;;;;;;;;;;5050943;28;20135;-64
2021/06/26 12:07:38;;;;;;;3.30;2.78;;;;;;;;;;5050161;28;20059;-65
2021/06/26 12:10:07;;;;;;;3.22;2.75;;;;;;;;;;5047896;28;20088;-64
2021/06/26 12:12:37;;;;;;;4.25;3.30;;;;;;;;;;5048597;28;20410;-67
2021/06/26 12:15:06;;;;;;;3.33;2.50;;;;;;;;;;5050324;28;20056;-65
2021/06/26 12:17:35;;;;;;;4.32;2.97;;;;;;;;;;5049368;28;20045;-65
2021/06/26 12:20:05;;;;;;;3.95;2.75;;;;;;;;;;5049541;28;20052;-66
2021/06/26 12:22:34;;;;;;;5.28;2.90;;;;;;;;;;5049259;28;20128;-64
2021/06/26 12:25:06;;;;;;;3.92;2.92;;;;;;;;;;5049293;28;20076;-64
2021/06/26 12:27:34;;;;;;;3.50;2.97;;;;;;;;;;5046371;28;20549;-65
2021/06/26 12:30:04;;;;;;;3.33;3.03;;;;;;;;;;5048468;28;20045;-64
2021/06/26 12:32:34;;;;;;;3.95;2.85;;;;;;;;;;5048648;28;20051;-64
2021/06/26 12:35:05;;;;;;;3.67;2.80;;;;;;;;;;5048172;28;20090;-65
2021/06/26 12:37:35;;;;;;;4.88;2.97;;;;;;;;;;5047432;28;20041;-65
2021/06/26 12:40:15;;;;;;;3.67;2.72;;;;;;;;;;5049887;28;20051;-64
2021/06/26 12:43:02;;;;;;;3.95;3.20;;;;;;;;;;5049708;28;20140;-64
2021/06/26 12:45:32;;;;;;;3.20;2.90;;;;;;;;;;5050086;28;20045;-65
2021/06/26 12:48:05;;;;;;;4.68;3.42;;;;;;;;;;5048178;28;20135;-65
2021/06/26 12:50:55;;;;;;;2.78;2.40;;;;;;;;;;829081;28;10003257;-64
2021/06/26 12:53:32;;;;;;;3.30;2.77;;;;;;;;;;5028993;28;20824;-64
2021/06/26 12:56:04;;;;;;;3.67;2.80;;;;;;;;;;5028929;28;20378;-64
2021/06/26 12:58:32;;;;;;;4.75;2.90;;;;;;;;;;5038802;28;20094;-64
2021/06/26 13:01:01;;;;;;;2.83;2.63;;;;;;;;;;5049590;28;20053;-64
2021/06/26 13:03:31;;;;;;;3.83;3.03;;;;;;;;;;5048841;28;20102;-64
2021/06/26 13:06:08;;;;;;;3.00;2.70;;;;;;;;;;5047576;28;20184;-65
2021/06/26 13:08:49;;;;;;;3.40;2.70;;;;;;;;;;5048548;28;20084;-64
2021/06/26 13:11:28;;;;;;;4.53;2.97;;;;;;;;;;5048779;28;20060;-64
2021/06/26 13:13:57;;;;;;;5.82;2.92;;;;;;;;;;5046749;28;20045;-64
2021/06/26 13:16:25;;;;;;;3.13;2.78;;;;;;;;;;5049188;28;20132;-64
2021/06/26 13:18:53;;;;;;;4.97;3.03;;;;;;;;;;5045653;28;20528;-65
2021/06/26 13:21:23;;;;;;;3.63;3.08;;;;;;;;;;5049343;28;20044;-64
2021/06/26 13:23:55;;;;;;;4.20;3.22;;;;;;;;;;5058850;28;20052;-64
2021/06/26 13:26:24;;;;;;;4.00;2.70;;;;;;;;;;5048331;28;20071;-64
2021/06/26 13:28:52;;;;;;;5.03;3.30;;;;;;;;;;5048474;28;20085;-64
2021/06/26 13:31:32;;;;;;;3.03;2.53;;;;;;;;;;5048847;28;20691;-65
2021/06/26 13:34:01;;;;;;;3.47;3.10;;;;;;;;;;5047971;28;20057;-64
2021/06/26 13:36:31;;;;;;;3.42;2.53;;;;;;;;;;5047074;28;20520;-64
2021/06/26 13:38:59;;;;;;;4.10;2.83;;;;;;;;;;5047925;28;20120;-64
2021/06/26 13:41:28;;;;;;;3.95;2.67;;;;;;;;;;5048568;28;20087;-67
2021/06/26 13:43:57;;;;;;;2.92;2.63;;;;;;;;;;5049013;28;20095;-66
2021/06/26 13:46:26;;;;;;;3.53;2.80;;;;;;;;;;5047601;28;20171;-66
2021/06/26 13:48:55;;;;;;;3.13;2.83;;;;;;;;;;5048679;28;20344;-66
2021/06/26 13:51:25;;;;;;;4.32;3.20;;;;;;;;;;5049451;28;20053;-65
2021/06/26 13:53:55;;;;;;;3.88;2.97;;;;;;;;;;5049423;28;20053;-66
2021/06/26 13:56:23;;;;;;;4.95;2.90;;;;;;;;;;5048878;28;20053;-65
2021/06/26 13:58:52;;;;;;;3.10;2.65;;;;;;;;;;5048775;28;20560;-65
2021/06/26 14:01:21;;;;;;;2.95;2.63;;;;;;;;;;5046489;28;20049;-65
2021/06/26 14:03:49;;;;;;;9.15;2.92;;;;;;;;;;5054103;28;20044;-65
2021/06/26 14:06:19;;;;;;;4.28;3.35;;;;;;;;;;5067679;28;20052;-65
2021/06/26 14:08:48;;;;;;;3.85;2.92;;;;;;;;;;5058166;28;20052;-64
2021/06/26 14:11:18;;;;;;;4.65;3.10;;;;;;;;;;5050814;28;20081;-65
2021/06/26 14:13:47;;;;;;;7.35;3.20;;;;;;;;;;5052323;28;20136;-66
2021/06/26 14:16:15;;;;;;;4.78;3.00;;;;;;;;;;5051113;28;20457;-67
2021/06/26 14:18:44;;;;;;;3.35;2.80;;;;;;;;;;5050117;28;20075;-68
2021/06/26 14:21:13;;;;;;;4.97;3.65;;;;;;;;;;5068752;28;20121;-66
2021/06/26 14:23:41;;;;;;;5.57;3.53;;;;;;;;;;5049955;28;20439;-66
2021/06/26 14:26:10;;;;;;;6.15;3.17;;;;;;;;;;5050368;28;20049;-66
2021/06/26 14:28:41;;;;;;;5.10;3.70;;;;;;;;;;5051241;28;20049;-66
2021/06/26 14:31:09;;;;;;;3.75;3.00;;;;;;;;;;5049613;28;20076;-65
2021/06/26 14:33:38;;;;;;;4.60;3.28;;;;;;;;;;5050015;28;20041;-65
2021/06/26 14:36:07;;;;;;;4.18;3.30;;;;;;;;;;5049190;28;20052;-65
2021/06/26 14:38:35;;;;;;;6.20;3.33;;;;;;;;;;5036008;28;20140;-66
2021/06/26 14:41:04;;;;;;;4.60;3.20;;;;;;;;;;5051477;28;20056;-65
2021/06/26 14:43:32;;;;;;;3.40;3.10;;;;;;;;;;5050812;28;20132;-65
2021/06/26 14:46:03;;;;;;;4.13;2.80;;;;;;;;;;5049885;28;20102;-65
2021/06/26 14:48:32;;;;;;;3.72;3.40;;;;;;;;;;5052000;28;20111;-65
2021/06/26 14:51:00;;;;;;;4.95;3.15;;;;;;;;;;5052323;28;20135;-65